sensor_id;sensor_type;location;lat;lon;timestamp;pressure;altitude;pressure_sealevel;temperature
24639;BMP180;1641;51.306;12.384;2023-08-31T00:00:32;99323.00;;;16.30
24639;BMP180;1641;51.306;12.384;2023-08-31T00:02:59;99311.00;;;16.30
24639;BMP180;1641;51.306;12.384;2023-08-31T00:05:25;99289.00;;;16.60
24639;BMP180;1641;51.306;12.384;2023-08-31T00:07:53;99278.00;;;16.40
24639;BMP180;1641;51.306;12.384;2023-08-31T00:10:18;99275.00;;;16.30
24639;BMP180;1641;51.306;12.384;2023-08-31T00:12:43;99317.00;;;16.20
24639;BMP180;1641;51.306;12.384;2023-08-31T00:15:09;99327.00;;;16.30
24639;BMP180;1641;51.306;12.384;2023-08-31T00:17:35;99319.00;;;16.40
24639;BMP180;1641;51.306;12.384;2023-08-31T00:20:00;99289.00;;;16.30
24639;BMP180;1641;51.306;12.384;2023-08-31T00:22:25;99289.00;;;16.40
24639;BMP180;1641;51.306;12.384;2023-08-31T00:24:51;99304.00;;;16.50
24639;BMP180;1641;51.306;12.384;2023-08-31T00:27:16;99311.00;;;16.40
24639;BMP180;1641;51.306;12.384;2023-08-31T00:29:42;99313.00;;;16.20
24639;BMP180;1641;51.306;12.384;2023-08-31T00:32:15;99318.00;;;16.10
24639;BMP180;1641;51.306;12.384;2023-08-31T00:34:40;99324.00;;;16.30
24639;BMP180;1641;51.306;12.384;2023-08-31T00:37:05;99323.00;;;16.40
24639;BMP180;1641;51.306;12.384;2023-08-31T00:39:31;99330.00;;;16.20
24639;BMP180;1641;51.306;12.384;2023-08-31T00:41:58;99325.00;;;16.10
24639;BMP180;1641;51.306;12.384;2023-08-31T00:44:24;99326.00;;;16.10
24639;BMP180;1641;51.306;12.384;2023-08-31T00:46:49;99332.00;;;16.00
24639;BMP180;1641;51.306;12.384;2023-08-31T00:49:15;99333.00;;;15.90
24639;BMP180;1641;51.306;12.384;2023-08-31T00:51:40;99332.00;;;16.00
24639;BMP180;1641;51.306;12.384;2023-08-31T00:54:06;99334.00;;;15.90
24639;BMP180;1641;51.306;12.384;2023-08-31T00:56:31;99332.00;;;15.80
24639;BMP180;1641;51.306;12.384;2023-08-31T00:58:57;99326.00;;;15.80
24639;BMP180;1641;51.306;12.384;2023-08-31T01:01:44;99323.00;;;15.80
24639;BMP180;1641;51.306;12.384;2023-08-31T01:04:38;99335.00;;;15.90
24639;BMP180;1641;51.306;12.384;2023-08-31T01:07:18;99343.00;;;15.80
24639;BMP180;1641;51.306;12.384;2023-08-31T01:09:56;99348.00;;;15.70
24639;BMP180;1641;51.306;12.384;2023-08-31T01:12:29;99348.00;;;15.60
24639;BMP180;1641;51.306;12.384;2023-08-31T01:15:03;99356.00;;;15.60
24639;BMP180;1641;51.306;12.384;2023-08-31T01:17:30;99352.00;;;15.70
24639;BMP180;1641;51.306;12.384;2023-08-31T01:19:58;99350.00;;;15.70
24639;BMP180;1641;51.306;12.384;2023-08-31T01:22:31;99352.00;;;15.70
24639;BMP180;1641;51.306;12.384;2023-08-31T01:24:59;99350.00;;;15.90
24639;BMP180;1641;51.306;12.384;2023-08-31T01:27:30;99344.00;;;15.90
24639;BMP180;1641;51.306;12.384;2023-08-31T01:29:56;99342.00;;;15.80
24639;BMP180;1641;51.306;12.384;2023-08-31T01:32:21;99339.00;;;15.80
24639;BMP180;1641;51.306;12.384;2023-08-31T01:34:47;99328.00;;;15.80
24639;BMP180;1641;51.306;12.384;2023-08-31T01:37:17;99349.00;;;15.60
24639;BMP180;1641;51.306;12.384;2023-08-31T01:39:50;99342.00;;;15.60
24639;BMP180;1641;51.306;12.384;2023-08-31T01:42:17;99350.00;;;15.60
24639;BMP180;1641;51.306;12.384;2023-08-31T01:44:45;99346.00;;;15.70
24639;BMP180;1641;51.306;12.384;2023-08-31T01:47:10;99346.00;;;15.70
24639;BMP180;1641;51.306;12.384;2023-08-31T01:49:38;99360.00;;;15.60
24639;BMP180;1641;51.306;12.384;2023-08-31T01:52:04;99361.00;;;15.80
24639;BMP180;1641;51.306;12.384;2023-08-31T01:54:30;99354.00;;;16.00
24639;BMP180;1641;51.306;12.384;2023-08-31T01:56:56;99352.00;;;15.80
24639;BMP180;1641;51.306;12.384;2023-08-31T01:59:21;99362.00;;;15.70
24639;BMP180;1641;51.306;12.384;2023-08-31T02:01:47;99362.00;;;15.60
24639;BMP180;1641;51.306;12.384;2023-08-31T02:04:12;99368.00;;;15.60
24639;BMP180;1641;51.306;12.384;2023-08-31T02:06:38;99379.00;;;15.50
24639;BMP180;1641;51.306;12.384;2023-08-31T02:09:03;99369.00;;;15.50
24639;BMP180;1641;51.306;12.384;2023-08-31T02:11:28;99372.00;;;15.50
24639;BMP180;1641;51.306;12.384;2023-08-31T02:13:54;99369.00;;;15.50
24639;BMP180;1641;51.306;12.384;2023-08-31T02:16:19;99377.00;;;15.50
24639;BMP180;1641;51.306;12.384;2023-08-31T02:18:44;99374.00;;;15.40
24639;BMP180;1641;51.306;12.384;2023-08-31T02:21:09;99374.00;;;15.40
24639;BMP180;1641;51.306;12.384;2023-08-31T02:23:35;99378.00;;;15.40
24639;BMP180;1641;51.306;12.384;2023-08-31T02:26:00;99381.00;;;15.60
24639;BMP180;1641;51.306;12.384;2023-08-31T02:28:25;99375.00;;;15.40
24639;BMP180;1641;51.306;12.384;2023-08-31T02:30:58;99369.00;;;15.50
24639;BMP180;1641;51.306;12.384;2023-08-31T02:33:24;99366.00;;;15.50
24639;BMP180;1641;51.306;12.384;2023-08-31T02:35:50;99377.00;;;15.50
24639;BMP180;1641;51.306;12.384;2023-08-31T02:38:15;99374.00;;;15.50
24639;BMP180;1641;51.306;12.384;2023-08-31T02:40:40;99388.00;;;15.40
24639;BMP180;1641;51.306;12.384;2023-08-31T02:43:05;99390.00;;;15.50
24639;BMP180;1641;51.306;12.384;2023-08-31T02:45:31;99390.00;;;15.60
24639;BMP180;1641;51.306;12.384;2023-08-31T02:47:56;99391.00;;;15.60
24639;BMP180;1641;51.306;12.384;2023-08-31T02:50:22;99395.00;;;15.30
24639;BMP180;1641;51.306;12.384;2023-08-31T02:52:47;99392.00;;;15.30
24639;BMP180;1641;51.306;12.384;2023-08-31T02:55:12;99390.00;;;15.40
24639;BMP180;1641;51.306;12.384;2023-08-31T02:57:38;99386.00;;;15.30
24639;BMP180;1641;51.306;12.384;2023-08-31T03:00:03;99393.00;;;15.40
24639;BMP180;1641;51.306;12.384;2023-08-31T03:02:31;99388.00;;;15.30
24639;BMP180;1641;51.306;12.384;2023-08-31T03:04:56;99398.00;;;15.30
24639;BMP180;1641;51.306;12.384;2023-08-31T03:07:21;99396.00;;;15.40
24639;BMP180;1641;51.306;12.384;2023-08-31T03:09:50;99409.00;;;15.60
24639;BMP180;1641;51.306;12.384;2023-08-31T03:12:15;99403.00;;;15.50
24639;BMP180;1641;51.306;12.384;2023-08-31T03:14:41;99399.00;;;15.70
24639;BMP180;1641;51.306;12.384;2023-08-31T03:17:06;99399.00;;;15.90
24639;BMP180;1641;51.306;12.384;2023-08-31T03:19:31;99395.00;;;15.90
24639;BMP180;1641;51.306;12.384;2023-08-31T03:21:56;99404.00;;;15.70
24639;BMP180;1641;51.306;12.384;2023-08-31T03:24:21;99400.00;;;15.80
24639;BMP180;1641;51.306;12.384;2023-08-31T03:26:48;99402.00;;;15.80
24639;BMP180;1641;51.306;12.384;2023-08-31T03:29:13;99398.00;;;15.70
24639;BMP180;1641;51.306;12.384;2023-08-31T03:31:38;99398.00;;;15.80
24639;BMP180;1641;51.306;12.384;2023-08-31T03:34:04;99397.00;;;15.90
24639;BMP180;1641;51.306;12.384;2023-08-31T03:36:29;99399.00;;;15.90
24639;BMP180;1641;51.306;12.384;2023-08-31T03:38:54;99409.00;;;15.70
24639;BMP180;1641;51.306;12.384;2023-08-31T03:41:20;99369.00;;;15.80
24639;BMP180;1641;51.306;12.384;2023-08-31T03:43:45;99409.00;;;15.70
24639;BMP180;1641;51.306;12.384;2023-08-31T03:46:11;99411.00;;;15.90
24639;BMP180;1641;51.306;12.384;2023-08-31T03:48:36;99415.00;;;15.80
24639;BMP180;1641;51.306;12.384;2023-08-31T03:51:02;99420.00;;;15.90
24639;BMP180;1641;51.306;12.384;2023-08-31T03:53:28;99410.00;;;15.80
24639;BMP180;1641;51.306;12.384;2023-08-31T03:55:53;99416.00;;;15.80
24639;BMP180;1641;51.306;12.384;2023-08-31T03:58:18;99418.00;;;16.00
24639;BMP180;1641;51.306;12.384;2023-08-31T04:00:44;99416.00;;;16.00
24639;BMP180;1641;51.306;12.384;2023-08-31T04:03:09;99422.00;;;16.00
24639;BMP180;1641;51.306;12.384;2023-08-31T04:05:35;99414.00;;;15.90
24639;BMP180;1641;51.306;12.384;2023-08-31T04:08:01;99418.00;;;15.90
24639;BMP180;1641;51.306;12.384;2023-08-31T04:10:27;99431.00;;;15.90
24639;BMP180;1641;51.306;12.384;2023-08-31T04:12:54;99433.00;;;15.90
24639;BMP180;1641;51.306;12.384;2023-08-31T04:15:19;99433.00;;;15.80
24639;BMP180;1641;51.306;12.384;2023-08-31T04:17:45;99423.00;;;15.90
24639;BMP180;1641;51.306;12.384;2023-08-31T04:20:11;99415.00;;;15.90
24639;BMP180;1641;51.306;12.384;2023-08-31T04:22:36;99429.00;;;15.90
24639;BMP180;1641;51.306;12.384;2023-08-31T04:25:01;99434.00;;;16.10
24639;BMP180;1641;51.306;12.384;2023-08-31T04:27:27;99446.00;;;15.90
24639;BMP180;1641;51.306;12.384;2023-08-31T04:29:55;99447.00;;;15.90
24639;BMP180;1641;51.306;12.384;2023-08-31T04:32:20;99452.00;;;15.90
24639;BMP180;1641;51.306;12.384;2023-08-31T04:34:45;99447.00;;;16.00
24639;BMP180;1641;51.306;12.384;2023-08-31T04:37:11;99452.00;;;16.10
24639;BMP180;1641;51.306;12.384;2023-08-31T04:39:36;99432.00;;;15.90
24639;BMP180;1641;51.306;12.384;2023-08-31T04:42:02;99453.00;;;15.90
24639;BMP180;1641;51.306;12.384;2023-08-31T04:44:27;99462.00;;;15.90
24639;BMP180;1641;51.306;12.384;2023-08-31T04:46:53;99471.00;;;16.00
24639;BMP180;1641;51.306;12.384;2023-08-31T04:49:20;99463.00;;;16.00
24639;BMP180;1641;51.306;12.384;2023-08-31T04:51:45;99471.00;;;16.10
24639;BMP180;1641;51.306;12.384;2023-08-31T04:54:11;99474.00;;;16.20
24639;BMP180;1641;51.306;12.384;2023-08-31T04:56:36;99479.00;;;16.30
24639;BMP180;1641;51.306;12.384;2023-08-31T04:59:02;99482.00;;;16.30
24639;BMP180;1641;51.306;12.384;2023-08-31T05:01:28;99479.00;;;16.30
24639;BMP180;1641;51.306;12.384;2023-08-31T05:03:53;99476.00;;;16.20
24639;BMP180;1641;51.306;12.384;2023-08-31T05:06:18;99493.00;;;16.20
24639;BMP180;1641;51.306;12.384;2023-08-31T05:08:46;99496.00;;;16.30
24639;BMP180;1641;51.306;12.384;2023-08-31T05:11:11;99493.00;;;16.60
24639;BMP180;1641;51.306;12.384;2023-08-31T05:13:36;99472.00;;;16.60
24639;BMP180;1641;51.306;12.384;2023-08-31T05:16:03;99499.00;;;16.60
24639;BMP180;1641;51.306;12.384;2023-08-31T05:18:28;99465.00;;;16.60
24639;BMP180;1641;51.306;12.384;2023-08-31T05:20:54;99512.00;;;16.70
24639;BMP180;1641;51.306;12.384;2023-08-31T05:23:19;99501.00;;;16.60
24639;BMP180;1641;51.306;12.384;2023-08-31T05:25:45;99509.00;;;16.70
24639;BMP180;1641;51.306;12.384;2023-08-31T05:28:11;99504.00;;;16.60
24639;BMP180;1641;51.306;12.384;2023-08-31T05:30:36;99509.00;;;16.50
24639;BMP180;1641;51.306;12.384;2023-08-31T05:33:02;99509.00;;;16.70
24639;BMP180;1641;51.306;12.384;2023-08-31T05:35:29;99520.00;;;16.60
24639;BMP180;1641;51.306;12.384;2023-08-31T05:37:54;99522.00;;;16.60
24639;BMP180;1641;51.306;12.384;2023-08-31T05:40:21;99516.00;;;16.80
24639;BMP180;1641;51.306;12.384;2023-08-31T05:42:46;99460.00;;;16.70
24639;BMP180;1641;51.306;12.384;2023-08-31T05:45:11;99516.00;;;16.80
24639;BMP180;1641;51.306;12.384;2023-08-31T05:47:37;99524.00;;;16.80
24639;BMP180;1641;51.306;12.384;2023-08-31T05:50:03;99528.00;;;16.80
24639;BMP180;1641;51.306;12.384;2023-08-31T05:52:29;99531.00;;;17.00
24639;BMP180;1641;51.306;12.384;2023-08-31T05:54:54;99508.00;;;17.10
24639;BMP180;1641;51.306;12.384;2023-08-31T05:57:20;99523.00;;;17.10
24639;BMP180;1641;51.306;12.384;2023-08-31T05:59:47;99540.00;;;17.30
24639;BMP180;1641;51.306;12.384;2023-08-31T06:02:12;99541.00;;;17.50
24639;BMP180;1641;51.306;12.384;2023-08-31T06:04:37;99532.00;;;17.80
24639;BMP180;1641;51.306;12.384;2023-08-31T06:07:03;99541.00;;;17.90
24639;BMP180;1641;51.306;12.384;2023-08-31T06:09:28;99530.00;;;18.10
24639;BMP180;1641;51.306;12.384;2023-08-31T06:11:53;99538.00;;;18.60
24639;BMP180;1641;51.306;12.384;2023-08-31T06:14:19;99541.00;;;19.20
24639;BMP180;1641;51.306;12.384;2023-08-31T06:16:44;99543.00;;;19.90
24639;BMP180;1641;51.306;12.384;2023-08-31T06:19:10;99550.00;;;20.20
24639;BMP180;1641;51.306;12.384;2023-08-31T06:21:35;99556.00;;;20.20
24639;BMP180;1641;51.306;12.384;2023-08-31T06:24:00;99543.00;;;20.80
24639;BMP180;1641;51.306;12.384;2023-08-31T06:26:25;99544.00;;;21.40
24639;BMP180;1641;51.306;12.384;2023-08-31T06:28:51;99548.00;;;21.60
24639;BMP180;1641;51.306;12.384;2023-08-31T06:31:16;99545.00;;;22.30
24639;BMP180;1641;51.306;12.384;2023-08-31T06:33:41;99553.00;;;21.40
24639;BMP180;1641;51.306;12.384;2023-08-31T06:36:07;99557.00;;;20.90
24639;BMP180;1641;51.306;12.384;2023-08-31T06:38:32;99568.00;;;21.50
24639;BMP180;1641;51.306;12.384;2023-08-31T06:40:58;99571.00;;;22.20
24639;BMP180;1641;51.306;12.384;2023-08-31T06:43:25;99568.00;;;22.80
24639;BMP180;1641;51.306;12.384;2023-08-31T06:45:52;99562.00;;;23.30
24639;BMP180;1641;51.306;12.384;2023-08-31T06:48:17;99565.00;;;23.40
24639;BMP180;1641;51.306;12.384;2023-08-31T06:50:43;99552.00;;;23.80
24639;BMP180;1641;51.306;12.384;2023-08-31T06:53:08;99578.00;;;23.90
24639;BMP180;1641;51.306;12.384;2023-08-31T06:55:33;99578.00;;;23.50
24639;BMP180;1641;51.306;12.384;2023-08-31T06:57:59;99587.00;;;23.30
24639;BMP180;1641;51.306;12.384;2023-08-31T07:00:24;99591.00;;;24.00
24639;BMP180;1641;51.306;12.384;2023-08-31T07:02:50;99583.00;;;24.20
24639;BMP180;1641;51.306;12.384;2023-08-31T07:05:15;99579.00;;;24.30
24639;BMP180;1641;51.306;12.384;2023-08-31T07:07:40;99580.00;;;24.60
24639;BMP180;1641;51.306;12.384;2023-08-31T07:10:06;99581.00;;;23.90
24639;BMP180;1641;51.306;12.384;2023-08-31T07:12:32;99588.00;;;24.70
24639;BMP180;1641;51.306;12.384;2023-08-31T07:14:57;99595.00;;;25.00
24639;BMP180;1641;51.306;12.384;2023-08-31T07:17:22;99591.00;;;25.00
24639;BMP180;1641;51.306;12.384;2023-08-31T07:19:48;99601.00;;;23.20
24639;BMP180;1641;51.306;12.384;2023-08-31T07:22:13;99599.00;;;24.60
24639;BMP180;1641;51.306;12.384;2023-08-31T07:24:38;99603.00;;;24.00
24639;BMP180;1641;51.306;12.384;2023-08-31T07:27:04;99605.00;;;24.20
24639;BMP180;1641;51.306;12.384;2023-08-31T07:29:29;99611.00;;;24.40
24639;BMP180;1641;51.306;12.384;2023-08-31T07:31:55;99610.00;;;23.60
24639;BMP180;1641;51.306;12.384;2023-08-31T07:34:20;99618.00;;;21.90
24639;BMP180;1641;51.306;12.384;2023-08-31T07:36:45;99610.00;;;20.70
24639;BMP180;1641;51.306;12.384;2023-08-31T07:39:12;99624.00;;;19.90
24639;BMP180;1641;51.306;12.384;2023-08-31T07:41:37;99626.00;;;20.40
24639;BMP180;1641;51.306;12.384;2023-08-31T07:44:02;99616.00;;;20.20
24639;BMP180;1641;51.306;12.384;2023-08-31T07:46:28;99633.00;;;20.10
24639;BMP180;1641;51.306;12.384;2023-08-31T07:48:53;99627.00;;;21.00
24639;BMP180;1641;51.306;12.384;2023-08-31T07:51:18;99626.00;;;20.90
24639;BMP180;1641;51.306;12.384;2023-08-31T07:53:48;99585.00;;;19.60
24639;BMP180;1641;51.306;12.384;2023-08-31T07:56:13;99640.00;;;20.20
24639;BMP180;1641;51.306;12.384;2023-08-31T07:58:39;99637.00;;;21.20
24639;BMP180;1641;51.306;12.384;2023-08-31T08:01:04;99634.00;;;22.20
24639;BMP180;1641;51.306;12.384;2023-08-31T08:03:33;99639.00;;;20.70
24639;BMP180;1641;51.306;12.384;2023-08-31T08:05:59;99648.00;;;21.70
24639;BMP180;1641;51.306;12.384;2023-08-31T08:08:24;99645.00;;;21.90
24639;BMP180;1641;51.306;12.384;2023-08-31T08:10:53;99631.00;;;22.10
24639;BMP180;1641;51.306;12.384;2023-08-31T08:13:24;99658.00;;;21.90
24639;BMP180;1641;51.306;12.384;2023-08-31T08:15:50;99650.00;;;21.70
24639;BMP180;1641;51.306;12.384;2023-08-31T08:18:15;99646.00;;;21.10
24639;BMP180;1641;51.306;12.384;2023-08-31T08:20:40;99658.00;;;21.40
24639;BMP180;1641;51.306;12.384;2023-08-31T08:23:06;99647.00;;;20.50
24639;BMP180;1641;51.306;12.384;2023-08-31T08:25:34;99660.00;;;20.70
24639;BMP180;1641;51.306;12.384;2023-08-31T08:28:06;99652.00;;;19.70
24639;BMP180;1641;51.306;12.384;2023-08-31T08:30:31;99654.00;;;18.80
24639;BMP180;1641;51.306;12.384;2023-08-31T08:32:56;99630.00;;;18.70
24639;BMP180;1641;51.306;12.384;2023-08-31T08:35:22;99664.00;;;18.90
24639;BMP180;1641;51.306;12.384;2023-08-31T08:37:53;99656.00;;;19.00
24639;BMP180;1641;51.306;12.384;2023-08-31T08:40:19;99663.00;;;19.50
24639;BMP180;1641;51.306;12.384;2023-08-31T08:42:52;99666.00;;;19.20
24639;BMP180;1641;51.306;12.384;2023-08-31T08:45:19;99667.00;;;19.40
24639;BMP180;1641;51.306;12.384;2023-08-31T08:47:52;99675.00;;;19.20
24639;BMP180;1641;51.306;12.384;2023-08-31T08:50:17;99668.00;;;19.80
24639;BMP180;1641;51.306;12.384;2023-08-31T08:53:01;99641.00;;;20.20
24639;BMP180;1641;51.306;12.384;2023-08-31T08:55:33;99648.00;;;20.60
24639;BMP180;1641;51.306;12.384;2023-08-31T08:57:58;99665.00;;;21.10
24639;BMP180;1641;51.306;12.384;2023-08-31T09:00:26;99652.00;;;22.10
24639;BMP180;1641;51.306;12.384;2023-08-31T09:03:04;99663.00;;;22.30
24639;BMP180;1641;51.306;12.384;2023-08-31T09:05:33;99640.00;;;22.40
24639;BMP180;1641;51.306;12.384;2023-08-31T09:08:08;99668.00;;;21.20
24639;BMP180;1641;51.306;12.384;2023-08-31T09:10:40;99665.00;;;21.00
24639;BMP180;1641;51.306;12.384;2023-08-31T09:13:10;99675.00;;;20.30
24639;BMP180;1641;51.306;12.384;2023-08-31T09:15:47;99674.00;;;19.10
24639;BMP180;1641;51.306;12.384;2023-08-31T09:18:23;99680.00;;;19.10
24639;BMP180;1641;51.306;12.384;2023-08-31T09:20:48;99690.00;;;18.90
24639;BMP180;1641;51.306;12.384;2023-08-31T09:23:14;99703.00;;;19.00
24639;BMP180;1641;51.306;12.384;2023-08-31T09:25:51;99687.00;;;18.90
24639;BMP180;1641;51.306;12.384;2023-08-31T09:28:20;99713.00;;;18.60
24639;BMP180;1641;51.306;12.384;2023-08-31T09:30:47;99709.00;;;18.30
24639;BMP180;1641;51.306;12.384;2023-08-31T09:33:17;99710.00;;;18.10
24639;BMP180;1641;51.306;12.384;2023-08-31T09:35:50;99715.00;;;18.40
24639;BMP180;1641;51.306;12.384;2023-08-31T09:38:22;99717.00;;;19.50
24639;BMP180;1641;51.306;12.384;2023-08-31T09:40:48;99702.00;;;21.70
24639;BMP180;1641;51.306;12.384;2023-08-31T09:43:20;99700.00;;;22.90
24639;BMP180;1641;51.306;12.384;2023-08-31T09:45:46;99693.00;;;22.50
24639;BMP180;1641;51.306;12.384;2023-08-31T09:48:13;99685.00;;;22.10
24639;BMP180;1641;51.306;12.384;2023-08-31T09:50:40;99696.00;;;22.70
24639;BMP180;1641;51.306;12.384;2023-08-31T09:53:11;99690.00;;;23.20
24639;BMP180;1641;51.306;12.384;2023-08-31T09:55:39;99686.00;;;22.30
24639;BMP180;1641;51.306;12.384;2023-08-31T09:58:06;99696.00;;;22.00
24639;BMP180;1641;51.306;12.384;2023-08-31T10:00:32;99674.00;;;21.30
24639;BMP180;1641;51.306;12.384;2023-08-31T10:03:01;99692.00;;;20.90
24639;BMP180;1641;51.306;12.384;2023-08-31T10:05:28;99678.00;;;20.90
24639;BMP180;1641;51.306;12.384;2023-08-31T10:07:53;99681.00;;;20.90
24639;BMP180;1641;51.306;12.384;2023-08-31T10:10:19;99681.00;;;20.40
24639;BMP180;1641;51.306;12.384;2023-08-31T10:12:48;99671.00;;;20.40
24639;BMP180;1641;51.306;12.384;2023-08-31T10:15:15;99655.00;;;20.80
24639;BMP180;1641;51.306;12.384;2023-08-31T10:17:42;99673.00;;;20.70
24639;BMP180;1641;51.306;12.384;2023-08-31T10:20:08;99662.00;;;21.90
24639;BMP180;1641;51.306;12.384;2023-08-31T10:22:37;99677.00;;;22.30
24639;BMP180;1641;51.306;12.384;2023-08-31T10:25:06;99656.00;;;21.90
24639;BMP180;1641;51.306;12.384;2023-08-31T10:27:40;99673.00;;;21.00
24639;BMP180;1641;51.306;12.384;2023-08-31T10:36:01;99667.00;;;21.50
24639;BMP180;1641;51.306;12.384;2023-08-31T10:38:30;99658.00;;;21.20
24639;BMP180;1641;51.306;12.384;2023-08-31T10:43:45;99658.00;;;21.10
24639;BMP180;1641;51.306;12.384;2023-08-31T10:46:27;99656.00;;;20.90
24639;BMP180;1641;51.306;12.384;2023-08-31T10:48:55;99652.00;;;21.30
24639;BMP180;1641;51.306;12.384;2023-08-31T10:51:28;99642.00;;;21.20
24639;BMP180;1641;51.306;12.384;2023-08-31T10:54:26;99637.00;;;21.20
24639;BMP180;1641;51.306;12.384;2023-08-31T10:59:17;99651.00;;;20.70
24639;BMP180;1641;51.306;12.384;2023-08-31T11:02:01;99655.00;;;21.10
24639;BMP180;1641;51.306;12.384;2023-08-31T11:04:29;99637.00;;;21.40
24639;BMP180;1641;51.306;12.384;2023-08-31T11:07:15;99645.00;;;20.80
24639;BMP180;1641;51.306;12.384;2023-08-31T11:09:41;99644.00;;;20.80
24639;BMP180;1641;51.306;12.384;2023-08-31T11:12:07;99649.00;;;20.90
24639;BMP180;1641;51.306;12.384;2023-08-31T11:14:33;99651.00;;;20.70
24639;BMP180;1641;51.306;12.384;2023-08-31T11:16:59;99647.00;;;20.30
24639;BMP180;1641;51.306;12.384;2023-08-31T11:19:26;99648.00;;;21.00
24639;BMP180;1641;51.306;12.384;2023-08-31T11:21:51;99644.00;;;21.70
24639;BMP180;1641;51.306;12.384;2023-08-31T11:24:17;99605.00;;;21.50
24639;BMP180;1641;51.306;12.384;2023-08-31T11:26:42;99651.00;;;20.10
24639;BMP180;1641;51.306;12.384;2023-08-31T11:29:12;99637.00;;;20.30
24639;BMP180;1641;51.306;12.384;2023-08-31T11:31:38;99651.00;;;19.80
24639;BMP180;1641;51.306;12.384;2023-08-31T11:34:17;99653.00;;;20.10
24639;BMP180;1641;51.306;12.384;2023-08-31T11:36:43;99651.00;;;20.10
24639;BMP180;1641;51.306;12.384;2023-08-31T11:39:10;99634.00;;;20.40
24639;BMP180;1641;51.306;12.384;2023-08-31T11:41:36;99637.00;;;20.30
24639;BMP180;1641;51.306;12.384;2023-08-31T11:44:05;99624.00;;;20.10
24639;BMP180;1641;51.306;12.384;2023-08-31T11:46:31;99643.00;;;20.30
24639;BMP180;1641;51.306;12.384;2023-08-31T11:49:00;99633.00;;;20.30
24639;BMP180;1641;51.306;12.384;2023-08-31T11:51:26;99632.00;;;20.80
24639;BMP180;1641;51.306;12.384;2023-08-31T11:54:16;99626.00;;;21.00
24639;BMP180;1641;51.306;12.384;2023-08-31T11:56:43;99630.00;;;21.20
24639;BMP180;1641;51.306;12.384;2023-08-31T11:59:10;99623.00;;;21.30
24639;BMP180;1641;51.306;12.384;2023-08-31T12:01:40;99627.00;;;20.30
24639;BMP180;1641;51.306;12.384;2023-08-31T12:04:14;99601.00;;;20.90
24639;BMP180;1641;51.306;12.384;2023-08-31T12:06:40;99631.00;;;20.90
24639;BMP180;1641;51.306;12.384;2023-08-31T12:09:09;99620.00;;;21.00
24639;BMP180;1641;51.306;12.384;2023-08-31T12:11:38;99605.00;;;21.40
24639;BMP180;1641;51.306;12.384;2023-08-31T12:16:45;99623.00;;;21.40
24639;BMP180;1641;51.306;12.384;2023-08-31T12:19:20;99620.00;;;21.60
24639;BMP180;1641;51.306;12.384;2023-08-31T12:21:46;99619.00;;;21.80
24639;BMP180;1641;51.306;12.384;2023-08-31T12:24:39;99629.00;;;21.90
24639;BMP180;1641;51.306;12.384;2023-08-31T12:27:09;99628.00;;;22.10
24639;BMP180;1641;51.306;12.384;2023-08-31T12:29:34;99618.00;;;22.50
24639;BMP180;1641;51.306;12.384;2023-08-31T12:32:31;99615.00;;;21.80
24639;BMP180;1641;51.306;12.384;2023-08-31T12:34:56;99551.00;;;21.60
24639;BMP180;1641;51.306;12.384;2023-08-31T12:37:21;99591.00;;;21.50
24639;BMP180;1641;51.306;12.384;2023-08-31T12:39:47;99620.00;;;21.30
24639;BMP180;1641;51.306;12.384;2023-08-31T12:42:16;99628.00;;;21.70
24639;BMP180;1641;51.306;12.384;2023-08-31T12:44:41;99635.00;;;21.70
24639;BMP180;1641;51.306;12.384;2023-08-31T12:47:13;99638.00;;;21.70
24639;BMP180;1641;51.306;12.384;2023-08-31T12:49:41;99641.00;;;21.90
24639;BMP180;1641;51.306;12.384;2023-08-31T12:52:16;99644.00;;;21.80
24639;BMP180;1641;51.306;12.384;2023-08-31T12:54:41;99636.00;;;21.40
24639;BMP180;1641;51.306;12.384;2023-08-31T12:57:06;99644.00;;;22.00
24639;BMP180;1641;51.306;12.384;2023-08-31T12:59:32;99623.00;;;22.00
24639;BMP180;1641;51.306;12.384;2023-08-31T13:02:09;99625.00;;;22.00
24639;BMP180;1641;51.306;12.384;2023-08-31T13:04:46;99590.00;;;22.20
24639;BMP180;1641;51.306;12.384;2023-08-31T13:07:14;99616.00;;;21.90
24639;BMP180;1641;51.306;12.384;2023-08-31T13:09:40;99641.00;;;21.40
24639;BMP180;1641;51.306;12.384;2023-08-31T13:12:30;99643.00;;;21.80
24639;BMP180;1641;51.306;12.384;2023-08-31T13:15:00;99631.00;;;21.60
24639;BMP180;1641;51.306;12.384;2023-08-31T13:17:47;99646.00;;;22.00
24639;BMP180;1641;51.306;12.384;2023-08-31T13:20:12;99643.00;;;21.30
24639;BMP180;1641;51.306;12.384;2023-08-31T13:22:38;99643.00;;;21.40
24639;BMP180;1641;51.306;12.384;2023-08-31T13:25:10;99657.00;;;21.50
24639;BMP180;1641;51.306;12.384;2023-08-31T13:27:42;99625.00;;;21.40
24639;BMP180;1641;51.306;12.384;2023-08-31T13:30:08;99637.00;;;22.00
24639;BMP180;1641;51.306;12.384;2023-08-31T13:32:35;99650.00;;;21.90
24639;BMP180;1641;51.306;12.384;2023-08-31T13:35:03;99646.00;;;21.60
24639;BMP180;1641;51.306;12.384;2023-08-31T13:37:48;99644.00;;;21.80
24639;BMP180;1641;51.306;12.384;2023-08-31T13:40:13;99649.00;;;21.80
24639;BMP180;1641;51.306;12.384;2023-08-31T13:42:50;99651.00;;;21.80
24639;BMP180;1641;51.306;12.384;2023-08-31T13:45:18;99659.00;;;22.20
24639;BMP180;1641;51.306;12.384;2023-08-31T13:47:43;99654.00;;;22.10
24639;BMP180;1641;51.306;12.384;2023-08-31T13:50:12;99662.00;;;22.10
24639;BMP180;1641;51.306;12.384;2023-08-31T13:52:37;99661.00;;;21.80
24639;BMP180;1641;51.306;12.384;2023-08-31T13:55:09;99635.00;;;21.80
24639;BMP180;1641;51.306;12.384;2023-08-31T13:57:34;99659.00;;;22.40
24639;BMP180;1641;51.306;12.384;2023-08-31T14:00:03;99660.00;;;21.70
24639;BMP180;1641;51.306;12.384;2023-08-31T14:02:30;99651.00;;;21.30
24639;BMP180;1641;51.306;12.384;2023-08-31T14:04:55;99676.00;;;21.90
24639;BMP180;1641;51.306;12.384;2023-08-31T14:07:24;99646.00;;;22.00
24639;BMP180;1641;51.306;12.384;2023-08-31T14:09:50;99672.00;;;22.20
24639;BMP180;1641;51.306;12.384;2023-08-31T14:12:15;99629.00;;;22.50
24639;BMP180;1641;51.306;12.384;2023-08-31T14:14:41;99662.00;;;22.60
24639;BMP180;1641;51.306;12.384;2023-08-31T14:17:07;99653.00;;;22.90
24639;BMP180;1641;51.306;12.384;2023-08-31T14:19:35;99648.00;;;23.40
24639;BMP180;1641;51.306;12.384;2023-08-31T14:22:01;99650.00;;;22.90
24639;BMP180;1641;51.306;12.384;2023-08-31T14:24:29;99659.00;;;22.80